Time;durP1;ratioP1;P1;durP2;ratioP2;P2;SDS_P1;SDS_P2;PMS_P1;PMS_P2;Temp;Humidity;BMP_temperature;BMP_pressure;BME280_temperature;BME280_humidity;BME280_pressure;Samples;Min_cycle;Max_cycle;Signal;HPM_P1;HPM_P2
2023/12/09 00:01:49;;;;;;;30.70;7.72;;;;;;;11.81;75.24;101025.81;5011215;28;20118;-45
2023/12/09 00:04:15;;;;;;;20.52;6.97;;;;;;;11.89;75.31;101025.91;5010899;28;20072;-46
2023/12/09 00:06:48;;;;;;;32.88;7.88;;;;;;;11.90;75.22;101015.47;4978210;28;20057;-45
2023/12/09 00:09:14;;;;;;;27.83;7.82;;;;;;;11.92;75.22;101021.59;4994551;28;20046;-45
2023/12/09 00:11:39;;;;;;;25.20;7.55;;;;;;;11.81;75.09;101031.06;5010568;28;20096;-47
2023/12/09 00:14:04;;;;;;;37.55;7.70;;;;;;;11.64;75.70;101030.84;5010805;28;20491;-45
2023/12/09 00:16:30;;;;;;;29.50;7.00;;;;;;;11.94;74.71;101029.44;5009964;28;20038;-45
2023/12/09 00:18:56;;;;;;;38.38;8.07;;;;;;;11.56;76.10;101023.75;5010432;28;20140;-47
2023/12/09 00:21:22;;;;;;;33.28;7.60;;;;;;;11.87;75.42;101025.00;5008566;28;20045;-48
2023/12/09 00:23:47;;;;;;;30.02;7.78;;;;;;;11.96;74.96;101020.75;4992898;28;20026;-44
2023/12/09 00:26:12;;;;;;;37.42;8.07;;;;;;;11.91;74.79;101022.44;5009245;28;20124;-47
2023/12/09 00:28:38;;;;;;;31.73;7.35;;;;;;;11.70;75.79;101023.06;5008351;28;20034;-47
2023/12/09 00:31:03;;;;;;;27.40;8.02;;;;;;;12.01;75.40;101026.03;5010131;28;20076;-47
2023/12/09 00:33:29;;;;;;;30.38;7.65;;;;;;;12.12;74.79;101025.28;5008115;28;20053;-47
2023/12/09 00:35:54;;;;;;;29.15;7.90;;;;;;;12.03;75.30;101030.41;5010310;28;20033;-48
2023/12/09 00:38:19;;;;;;;33.95;7.57;;;;;;;12.08;74.81;101023.47;5008472;28;20045;-46
2023/12/09 00:40:45;;;;;;;31.40;7.95;;;;;;;12.11;74.22;101026.13;5008316;28;20488;-50
2023/12/09 00:43:10;;;;;;;25.65;7.78;;;;;;;12.22;74.02;101018.38;5010367;28;20038;-46
2023/12/09 00:45:35;;;;;;;30.52;7.65;;;;;;;12.22;74.12;101018.38;5009701;28;20121;-44
2023/12/09 00:48:00;;;;;;;30.05;7.93;;;;;;;12.20;73.69;101014.88;4992425;28;20029;-44
2023/12/09 00:50:26;;;;;;;37.00;7.28;;;;;;;12.19;73.68;101014.03;5009483;28;20053;-44
2023/12/09 00:52:51;;;;;;;25.15;8.00;;;;;;;12.10;73.66;101016.53;5008787;28;20119;-45
2023/12/09 00:55:16;;;;;;;29.73;7.95;;;;;;;12.05;73.41;101018.25;5009653;28;20124;-48
2023/12/09 00:57:42;;;;;;;40.60;8.20;;;;;;;11.89;73.85;101015.47;5014457;28;20145;-43
2023/12/09 01:00:07;;;;;;;31.27;8.13;;;;;;;11.80;74.32;101026.69;5014117;28;20068;-45
2023/12/09 01:02:33;;;;;;;35.45;7.95;;;;;;;11.76;74.32;101011.84;5011736;28;20033;-47
2023/12/09 01:04:58;;;;;;;30.25;8.48;;;;;;;11.72;74.25;101010.88;5012719;28;20505;-44
2023/12/09 01:07:23;;;;;;;33.83;7.68;;;;;;;11.75;73.24;101010.97;5012523;28;20559;-44
2023/12/09 01:09:49;;;;;;;25.20;8.00;;;;;;;11.61;73.73;101009.91;5014353;28;20041;-45
2023/12/09 01:12:14;;;;;;;27.27;7.97;;;;;;;11.22;75.06;101010.28;5013763;28;20113;-46
2023/12/09 01:14:41;;;;;;;33.15;8.68;;;;;;;11.07;75.40;101007.50;5014203;28;20133;-43
2023/12/09 01:17:06;;;;;;;31.17;7.93;;;;;;;11.46;74.93;101007.13;5014495;28;20084;-44
2023/12/09 01:19:32;;;;;;;30.05;7.18;;;;;;;11.51;74.28;101007.16;5014638;28;20030;-45
2023/12/09 01:21:57;;;;;;;30.85;7.38;;;;;;;11.47;74.27;101008.84;5013004;28;20038;-43
2023/12/09 01:24:23;;;;;;;36.92;8.40;;;;;;;11.56;73.55;101001.13;5013037;28;20030;-49
2023/12/09 01:26:48;;;;;;;29.05;7.68;;;;;;;11.32;73.74;101009.56;4996329;28;20451;-47
2023/12/09 01:29:13;;;;;;;28.02;7.32;;;;;;;11.37;73.90;100999.16;5013491;28;20081;-43
2023/12/09 01:31:39;;;;;;;26.20;7.50;;;;;;;11.40;73.32;100994.84;4994918;28;20026;-44
2023/12/09 01:34:04;;;;;;;33.83;7.60;;;;;;;11.30;73.13;100994.72;5013312;28;20504;-48
2023/12/09 01:36:29;;;;;;;30.73;7.40;;;;;;;11.01;74.80;100989.13;5012847;28;20038;-48
2023/12/09 01:38:55;;;;;;;27.63;7.90;;;;;;;11.17;74.04;100980.66;5013268;28;20034;-45
2023/12/09 01:41:20;;;;;;;27.70;7.43;;;;;;;11.21;73.66;100973.75;5012571;28;20070;-45
2023/12/09 01:43:47;;;;;;;32.55;7.80;;;;;;;11.08;74.31;100970.09;5013317;28;20399;-45
2023/12/09 01:46:13;;;;;;;29.95;7.25;;;;;;;11.18;73.59;100968.47;5013067;28;20041;-48
2023/12/09 01:48:39;;;;;;;25.17;7.22;;;;;;;11.06;74.23;100971.81;5012788;28;20132;-46
2023/12/09 01:51:05;;;;;;;29.60;6.72;;;;;;;10.99;74.37;100976.06;5012578;28;20089;-44
2023/12/09 01:53:31;;;;;;;24.27;6.53;;;;;;;11.01;74.73;100975.22;4994873;28;20137;-45
2023/12/09 01:55:59;;;;;;;29.45;7.10;;;;;;;11.10;73.90;100970.13;5011768;28;20540;-46
2023/12/09 01:58:25;;;;;;;19.88;6.55;;;;;;;11.06;73.45;100977.03;5012531;28;20446;-45
2023/12/09 02:00:51;;;;;;;21.90;6.35;;;;;;;10.94;73.80;100977.75;5011306;28;20510;-44
2023/12/09 02:03:18;;;;;;;25.30;6.93;;;;;;;10.83;74.02;100971.50;5012458;28;20069;-44
2023/12/09 02:05:44;;;;;;;21.80;6.38;;;;;;;10.65;75.28;100973.88;4995155;28;20030;-45
2023/12/09 02:08:10;;;;;;;27.35;7.10;;;;;;;10.65;75.35;100978.19;5011452;28;20049;-44
2023/12/09 02:10:35;;;;;;;24.77;7.00;;;;;;;10.67;75.32;100977.38;4994524;28;20506;-43
2023/12/09 02:13:20;;;;;;;34.22;7.40;;;;;;;10.78;74.36;100969.69;5010939;28;20384;-44
2023/12/09 02:15:45;;;;;;;;;;;;;;;10.73;74.59;100963.56;5012843;28;20030;-46
2023/12/09 02:18:12;;;;;;;27.43;6.90;;;;;;;10.55;74.86;100970.22;5012670;28;19920;-45
2023/12/09 02:20:37;;;;;;;30.15;7.35;;;;;;;10.75;74.25;100975.75;4994360;28;20296;-45
2023/12/09 02:23:05;;;;;;;27.33;7.40;;;;;;;10.71;74.26;100965.25;5011328;28;20065;-49
2023/12/09 02:25:30;;;;;;;27.13;7.20;;;;;;;10.68;73.84;100957.38;5011867;28;20026;-45
2023/12/09 02:27:59;;;;;;;31.50;7.32;;;;;;;10.70;73.95;100947.84;5012145;28;20037;-46
2023/12/09 02:30:27;;;;;;;25.63;7.38;;;;;;;10.64;73.63;100948.63;5011731;28;20080;-45
2023/12/09 02:32:55;;;;;;;35.45;7.95;;;;;;;10.57;74.04;100950.28;5012582;28;20049;-43
2023/12/09 02:35:22;;;;;;;29.85;7.07;;;;;;;10.42;74.79;100939.63;5011398;28;20042;-44
2023/12/09 02:37:49;;;;;;;27.55;7.25;;;;;;;10.61;74.21;100932.09;5012185;28;20642;-46
2023/12/09 02:40:17;;;;;;;24.90;7.13;;;;;;;10.62;73.73;100931.22;5011194;28;20061;-45
2023/12/09 02:42:43;;;;;;;30.15;7.28;;;;;;;10.55;74.28;100933.72;5011974;28;20037;-48
2023/12/09 02:45:09;;;;;;;25.40;6.82;;;;;;;10.49;74.32;100925.81;5012238;28;20112;-45
2023/12/09 02:47:34;;;;;;;31.27;7.40;;;;;;;10.50;74.20;100924.09;5011527;28;20121;-47
2023/12/09 02:49:59;;;;;;;28.88;7.15;;;;;;;10.44;74.81;100922.28;5011967;28;20038;-48
2023/12/09 02:52:25;;;;;;;28.13;6.90;;;;;;;10.44;74.69;100924.88;5011824;28;20676;-44
2023/12/09 02:54:50;;;;;;;25.10;6.78;;;;;;;10.40;74.53;100922.22;5011709;28;20057;-50
2023/12/09 02:57:16;;;;;;;21.45;5.93;;;;;;;10.40;74.07;100935.25;5011443;28;20065;-48
2023/12/09 02:59:41;;;;;;;29.02;6.30;;;;;;;10.39;75.10;100923.94;5011472;28;20045;-44
2023/12/09 03:02:06;;;;;;;31.80;6.65;;;;;;;10.35;75.17;100918.66;5010523;28;20440;-46
2023/12/09 03:04:32;;;;;;;23.88;6.28;;;;;;;10.41;75.18;100918.75;5011310;28;20045;-43
2023/12/09 03:06:57;;;;;;;28.13;6.30;;;;;;;10.37;75.42;100914.38;5011925;28;20045;-45
2023/12/09 03:09:22;;;;;;;26.05;6.55;;;;;;;10.42;75.08;100923.13;5011034;28;20052;-50
2023/12/09 03:11:48;;;;;;;26.00;6.20;;;;;;;10.45;75.22;100920.56;5009976;28;20041;-46
2023/12/09 03:14:13;;;;;;;24.85;5.82;;;;;;;10.39;75.17;100918.72;5011362;28;20042;-46
2023/12/09 03:16:39;;;;;;;29.25;6.05;;;;;;;10.42;75.92;100910.97;5011238;28;20150;-49
2023/12/09 03:19:04;;;;;;;25.30;5.95;;;;;;;10.49;75.41;100920.59;5010968;28;20115;-45
2023/12/09 03:21:30;;;;;;;25.38;6.00;;;;;;;10.44;75.46;100921.41;5011820;28;20045;-46
2023/12/09 03:23:55;;;;;;;30.75;5.97;;;;;;;10.55;75.09;100912.88;5011409;28;20038;-44
2023/12/09 03:26:20;;;;;;;26.45;5.88;;;;;;;10.40;75.96;100909.19;5010617;28;20040;-45
2023/12/09 03:28:46;;;;;;;26.17;5.82;;;;;;;10.46;74.93;100904.06;5012293;28;20033;-45
2023/12/09 03:31:13;;;;;;;24.08;6.30;;;;;;;10.44;75.47;100906.63;5011659;28;20041;-47
2023/12/09 03:33:39;;;;;;;28.90;6.03;;;;;;;10.51;75.18;100907.59;5011426;28;20042;-45
2023/12/09 03:36:06;;;;;;;30.02;6.07;;;;;;;10.54;74.38;100899.84;5011553;28;20041;-45
2023/12/09 03:38:31;;;;;;;22.10;5.53;;;;;;;10.51;74.12;100894.56;5010831;28;20049;-48
2023/12/09 03:40:56;;;;;;;24.77;5.38;;;;;;;10.50;74.97;100893.69;5011093;28;20681;-45
2023/12/09 03:43:22;;;;;;;27.05;5.53;;;;;;;10.36;75.34;100886.56;5010263;28;20389;-46
2023/12/09 03:45:47;;;;;;;29.35;5.30;;;;;;;10.51;74.93;100886.75;5010894;28;20088;-46
2023/12/09 03:48:12;;;;;;;29.95;5.95;;;;;;;10.25;75.66;100886.38;5010955;28;20057;-45
2023/12/09 03:50:38;;;;;;;23.15;5.38;;;;;;;10.46;74.76;100880.59;5010348;28;20026;-48
2023/12/09 03:53:03;;;;;;;21.90;5.20;;;;;;;10.37;74.89;100876.13;5009130;28;20415;-44
2023/12/09 03:55:29;;;;;;;28.33;6.00;;;;;;;10.42;75.22;100877.09;5010458;28;20188;-46
2023/12/09 03:57:55;;;;;;;22.70;5.50;;;;;;;10.51;74.77;100876.31;5011215;28;20121;-44
2023/12/09 04:00:20;;;;;;;24.90;5.47;;;;;;;10.55;74.39;100867.72;5010485;28;20037;-48
2023/12/09 04:02:46;;;;;;;26.25;5.93;;;;;;;10.48;74.80;100863.25;5011024;28;20544;-44
2023/12/09 04:05:11;;;;;;;29.27;5.95;;;;;;;10.42;74.95;100866.66;5010470;28;20042;-45
2023/12/09 04:07:36;;;;;;;25.30;5.72;;;;;;;10.60;75.60;100860.81;5010390;28;20022;-45
2023/12/09 04:10:03;;;;;;;19.45;5.47;;;;;;;10.40;76.12;100864.88;5010721;28;20037;-44
2023/12/09 04:12:28;;;;;;;29.08;6.57;;;;;;;10.55;75.12;100849.47;5010094;28;20038;-45
2023/12/09 04:14:54;;;;;;;23.35;5.80;;;;;;;10.71;74.70;100847.91;5010528;28;20057;-44
2023/12/09 04:17:21;;;;;;;26.45;6.78;;;;;;;10.68;74.11;100859.16;5010546;28;20168;-47
2023/12/09 04:19:47;;;;;;;25.88;6.15;;;;;;;10.54;74.27;100858.13;5011151;28;20396;-46
2023/12/09 04:22:12;;;;;;;21.88;6.68;;;;;;;10.62;74.19;100863.41;5011166;28;20042;-44
2023/12/09 04:24:37;;;;;;;27.80;6.78;;;;;;;10.45;74.41;100861.47;5011590;28;20033;-48
2023/12/09 04:27:03;;;;;;;23.70;5.90;;;;;;;10.46;74.69;100855.41;5011813;28;20655;-44
2023/12/09 04:29:28;;;;;;;31.20;6.72;;;;;;;10.50;75.11;100846.78;5010929;28;20068;-43
2023/12/09 04:31:53;;;;;;;21.60;6.05;;;;;;;10.64;73.82;100836.53;5010664;28;20727;-45
2023/12/09 04:34:19;;;;;;;29.30;6.47;;;;;;;10.54;74.26;100830.34;5010195;28;20125;-45
2023/12/09 04:36:44;;;;;;;26.42;6.93;;;;;;;10.60;73.93;100837.34;5010785;28;20115;-46
2023/12/09 04:39:10;;;;;;;29.02;7.05;;;;;;;10.28;75.02;100830.84;5010431;28;20034;-44
2023/12/09 04:41:35;;;;;;;24.45;6.43;;;;;;;10.53;74.94;100827.72;5010171;28;20117;-44
2023/12/09 04:44:00;;;;;;;25.35;7.15;;;;;;;10.59;75.11;100825.19;5011336;28;20033;-44
2023/12/09 04:46:26;;;;;;;25.58;6.90;;;;;;;10.69;74.98;100833.97;5009629;28;20037;-43
2023/12/09 04:48:51;;;;;;;26.83;7.85;;;;;;;10.68;74.75;100829.59;5009947;28;20042;-44
2023/12/09 04:51:17;;;;;;;27.77;7.78;;;;;;;10.77;74.30;100817.56;5009333;28;20030;-51
2023/12/09 04:53:42;;;;;;;26.27;6.80;;;;;;;10.70;74.63;100820.97;5009813;28;20600;-45
2023/12/09 04:56:08;;;;;;;27.00;7.53;;;;;;;10.73;74.86;100820.13;5009873;28;20038;-45
2023/12/09 04:58:34;;;;;;;28.05;7.80;;;;;;;10.73;73.82;100825.34;5009608;28;20057;-47
2023/12/09 05:01:00;;;;;;;21.73;7.32;;;;;;;10.71;74.61;100819.22;5009658;28;20120;-48
2023/12/09 05:03:25;;;;;;;28.80;8.20;;;;;;;10.41;74.72;100822.34;5009344;28;20113;-48
2023/12/09 05:05:50;;;;;;;29.23;7.40;;;;;;;10.72;75.34;100811.44;5009895;28;20088;-45
2023/12/09 05:08:16;;;;;;;24.60;7.22;;;;;;;10.86;74.44;100812.44;5009518;28;20407;-46
2023/12/09 05:10:41;;;;;;;27.67;7.97;;;;;;;10.82;74.57;100817.63;5009696;28;20058;-48
2023/12/09 05:13:07;;;;;;;25.60;7.97;;;;;;;10.88;74.43;100820.28;5009768;28;20038;-45
2023/12/09 05:15:32;;;;;;;31.20;7.97;;;;;;;10.94;74.40;100807.31;5009204;28;20085;-46
2023/12/09 05:17:57;;;;;;;28.55;7.90;;;;;;;11.04;74.17;100790.91;5009761;28;20053;-49
2023/12/09 05:20:23;;;;;;;26.85;7.90;;;;;;;10.99;74.36;100789.97;5009197;28;20061;-46
2023/12/09 05:22:48;;;;;;;24.08;8.55;;;;;;;10.99;74.01;100792.59;5009668;28;20125;-48
2023/12/09 05:25:14;;;;;;;27.90;8.40;;;;;;;10.96;74.24;100792.56;5009476;28;20046;-48
2023/12/09 05:27:39;;;;;;;26.92;8.40;;;;;;;10.71;74.63;100800.97;5017566;28;20511;-46
2023/12/09 05:30:05;;;;;;;33.78;8.70;;;;;;;10.76;74.24;100794.97;5009430;28;20129;-46
2023/12/09 05:32:31;;;;;;;29.58;8.60;;;;;;;10.82;74.82;100786.31;5009013;28;20125;-46
2023/12/09 05:34:56;;;;;;;27.65;8.65;;;;;;;10.96;73.78;100785.63;5009529;28;20502;-47
2023/12/09 05:37:22;;;;;;;31.02;8.25;;;;;;;10.74;74.25;100769.72;5009253;28;20026;-46
2023/12/09 05:39:47;;;;;;;25.70;8.10;;;;;;;10.99;74.32;100770.00;5009408;28;20048;-47
2023/12/09 05:42:12;;;;;;;19.08;7.65;;;;;;;10.61;74.77;100765.25;5011934;28;20030;-45
2023/12/09 05:44:37;;;;;;;28.90;7.95;;;;;;;10.83;74.77;100756.78;5011403;28;20030;-47
2023/12/09 05:47:03;;;;;;;27.27;8.02;;;;;;;11.01;73.98;100749.16;5012890;28;20042;-47
2023/12/09 05:49:28;;;;;;;30.70;8.00;;;;;;;10.86;74.29;100754.19;5012389;28;20092;-46
2023/12/09 05:51:54;;;;;;;25.40;7.90;;;;;;;10.70;75.10;100749.69;5013033;28;20120;-47
2023/12/09 05:54:19;;;;;;;29.77;8.45;;;;;;;10.87;74.49;100748.13;5012444;28;20048;-51
2023/12/09 05:56:48;;;;;;;32.20;8.95;;;;;;;10.91;74.27;100740.38;5012851;28;20086;-45
2023/12/09 05:59:14;;;;;;;27.42;8.30;;;;;;;10.70;75.94;100749.69;5012803;28;20053;-46
2023/12/09 06:01:39;;;;;;;28.33;8.73;;;;;;;10.90;74.86;100748.16;5012245;28;20030;-48
2023/12/09 06:04:04;;;;;;;31.05;8.90;;;;;;;10.80;75.27;100744.56;5012345;28;20100;-46
2023/12/09 06:06:30;;;;;;;30.42;9.55;;;;;;;10.98;75.32;100739.53;5012179;28;20481;-47
2023/12/09 06:08:55;;;;;;;34.83;10.30;;;;;;;10.93;74.55;100730.81;5012879;28;20400;-45
2023/12/09 06:11:20;;;;;;;30.50;11.00;;;;;;;10.99;74.63;100733.47;5012137;28;20112;-46
2023/12/09 06:13:46;;;;;;;34.40;11.13;;;;;;;11.24;74.02;100725.84;5012709;28;20511;-46
2023/12/09 06:16:17;;;;;;;30.83;11.77;;;;;;;10.81;75.11;100702.00;5012217;28;20037;-54
2023/12/09 06:18:43;;;;;;;34.20;12.88;;;;;;;11.09;74.92;100710.09;5012091;28;20041;-46
2023/12/09 06:21:08;;;;;;;34.22;11.98;;;;;;;11.24;74.39;100711.06;5012210;28;20037;-50
2023/12/09 06:23:36;;;;;;;40.83;12.43;;;;;;;11.34;73.68;100717.25;5011922;28;25612;-45
2023/12/09 06:26:03;;;;;;;37.35;13.02;;;;;;;11.32;73.40;100713.75;5012540;28;20040;-45
2023/12/09 06:28:28;;;;;;;39.13;13.98;;;;;;;11.30;73.40;100698.06;5010551;28;20298;-43
2023/12/09 06:30:53;;;;;;;36.42;13.82;;;;;;;11.31;73.14;100684.16;5012039;28;20396;-45
2023/12/09 06:33:19;;;;;;;43.88;15.27;;;;;;;10.93;74.47;100673.41;5011606;28;20408;-48
2023/12/09 06:35:44;;;;;;;37.33;14.70;;;;;;;11.20;74.01;100653.63;5011833;28;20030;-44
2023/12/09 06:38:09;;;;;;;41.97;15.50;;;;;;;11.30;72.81;100642.41;5012276;28;20041;-45
2023/12/09 06:40:35;;;;;;;38.63;14.55;;;;;;;11.31;73.21;100624.16;5011536;28;20504;-44
2023/12/09 06:43:00;;;;;;;39.90;15.15;;;;;;;11.29;73.53;100623.25;5012232;28;20377;-44
2023/12/09 06:45:25;;;;;;;47.58;16.13;;;;;;;11.26;72.93;100619.75;5011854;28;20038;-47
2023/12/09 06:47:53;;;;;;;43.53;16.20;;;;;;;10.91;74.42;100624.72;5012254;28;20033;-44
2023/12/09 06:50:19;;;;;;;48.38;16.60;;;;;;;11.05;73.27;100625.69;5011124;28;20042;-45
2023/12/09 06:52:44;;;;;;;44.95;17.13;;;;;;;11.20;73.10;100633.66;5010649;28;20092;-45
2023/12/09 06:55:09;;;;;;;50.08;16.83;;;;;;;11.18;72.87;100624.03;5011949;28;20042;-45
2023/12/09 06:57:35;;;;;;;41.67;16.58;;;;;;;11.20;72.60;100622.34;5011587;28;20030;-45
2023/12/09 07:00:00;;;;;;;39.53;16.92;;;;;;;10.99;73.40;100620.44;5012153;28;20507;-44
2023/12/09 07:02:25;;;;;;;40.67;17.92;;;;;;;11.11;72.96;100625.72;5011505;28;20034;-44
2023/12/09 07:04:51;;;;;;;40.42;16.55;;;;;;;11.14;72.71;100620.56;5011402;28;20469;-45
2023/12/09 07:07:16;;;;;;;43.78;17.88;;;;;;;11.05;72.61;100609.16;5011169;28;20501;-49
2023/12/09 07:09:41;;;;;;;42.38;17.02;;;;;;;11.19;72.86;100605.81;5011650;28;20045;-44
2023/12/09 07:12:06;;;;;;;41.15;16.55;;;;;;;11.22;72.85;100610.19;5011895;28;20042;-45
2023/12/09 07:14:32;;;;;;;44.58;17.73;;;;;;;10.91;73.51;100611.69;5011758;28;20133;-44
2023/12/09 07:16:57;;;;;;;43.25;17.63;;;;;;;11.23;73.44;100606.69;5012464;28;20060;-43
2023/12/09 07:19:23;;;;;;;41.83;17.25;;;;;;;11.36;72.76;100608.50;5010831;28;20050;-43
2023/12/09 07:21:51;;;;;;;46.70;17.38;;;;;;;11.16;73.28;100610.97;5011575;28;20084;-47
2023/12/09 07:24:16;;;;;;;49.70;18.10;;;;;;;11.43;72.54;100598.97;5011475;28;20096;-45
2023/12/09 07:26:41;;;;;;;40.80;18.83;;;;;;;11.19;72.33;100584.94;4993779;28;20026;-46
2023/12/09 07:29:07;;;;;;;45.28;18.67;;;;;;;10.95;74.07;100592.59;5011924;28;20056;-49
2023/12/09 07:31:33;;;;;;;48.88;18.60;;;;;;;10.85;74.77;100589.06;5011528;28;20030;-44
2023/12/09 07:33:58;;;;;;;46.08;18.48;;;;;;;11.11;73.80;100577.91;5011609;28;20045;-44
2023/12/09 07:36:23;;;;;;;47.40;18.38;;;;;;;11.34;72.95;100574.56;5011200;28;20160;-49
2023/12/09 07:38:49;;;;;;;42.97;18.38;;;;;;;11.28;73.48;100571.06;5011964;28;20033;-46
2023/12/09 07:41:14;;;;;;;43.40;18.45;;;;;;;11.33;72.69;100566.75;5011476;28;20464;-46
2023/12/09 07:43:39;;;;;;;42.53;18.98;;;;;;;11.26;73.01;100575.41;5011364;28;20106;-46
2023/12/09 07:46:05;;;;;;;49.13;19.48;;;;;;;11.54;72.25;100569.44;5011101;28;20087;-47
2023/12/09 07:48:30;;;;;;;43.20;18.58;;;;;;;11.54;72.42;100579.00;5010420;28;20535;-51
2023/12/09 07:50:55;;;;;;;43.63;19.50;;;;;;;11.12;73.77;100575.31;5010704;28;20041;-44
2023/12/09 07:53:21;;;;;;;39.83;18.15;;;;;;;11.42;72.93;100574.59;5010475;28;20060;-44
2023/12/09 07:55:46;;;;;;;55.22;18.85;;;;;;;11.13;73.62;100584.00;5010837;28;20092;-48
2023/12/09 07:58:11;;;;;;;45.38;18.95;;;;;;;11.37;72.99;100577.19;5011111;28;20061;-44
2023/12/09 08:00:37;;;;;;;41.05;18.58;;;;;;;11.46;72.71;100571.16;5010618;28;20061;-44
2023/12/09 08:03:05;;;;;;;47.55;18.80;;;;;;;11.42;72.83;100561.56;5011921;28;20169;-43
2023/12/09 08:05:33;;;;;;;40.95;18.58;;;;;;;11.66;72.07;100568.63;5010768;28;20133;-49
2023/12/09 08:07:58;;;;;;;41.33;17.80;;;;;;;11.61;72.75;100565.13;5010854;28;20034;-45
2023/12/09 08:10:23;;;;;;;40.05;17.08;;;;;;;11.51;72.97;100548.56;5010190;28;20038;-46
2023/12/09 08:12:49;;;;;;;39.08;17.55;;;;;;;11.69;72.50;100550.38;5010433;28;20041;-47
2023/12/09 08:15:14;;;;;;;41.95;16.77;;;;;;;11.66;72.15;100540.78;5010249;28;20042;-49
2023/12/09 08:17:40;;;;;;;39.63;16.85;;;;;;;11.46;72.33;100528.53;5008626;28;20108;-46
2023/12/09 08:20:08;;;;;;;38.50;16.60;;;;;;;11.66;72.91;100529.44;5009987;28;20400;-52
2023/12/09 08:22:36;;;;;;;35.50;15.55;;;;;;;11.65;72.44;100525.09;5008465;28;20046;-45
2023/12/09 08:25:01;;;;;;;36.25;15.45;;;;;;;11.76;72.33;100520.84;5010721;28;20033;-45
2023/12/09 08:27:26;;;;;;;39.60;16.05;;;;;;;11.53;73.28;100518.09;5009766;28;20037;-45
2023/12/09 08:29:52;;;;;;;45.17;15.48;;;;;;;11.65;72.07;100509.44;5010425;28;20045;-47
2023/12/09 08:32:17;;;;;;;37.17;15.00;;;;;;;11.71;72.17;100504.25;5009593;28;20030;-45
2023/12/09 08:34:42;;;;;;;33.85;14.57;;;;;;;11.63;71.88;100492.91;5009851;28;20038;-45
2023/12/09 08:37:08;;;;;;;38.25;14.55;;;;;;;11.83;71.34;100495.63;5010188;28;20046;-51
2023/12/09 08:39:38;;;;;;;34.45;14.48;;;;;;;11.78;71.47;100485.13;5009893;28;20575;-45
2023/12/09 08:42:04;;;;;;;37.13;13.73;;;;;;;11.98;70.95;100464.28;5010487;28;20237;-47
2023/12/09 08:44:29;;;;;;;40.72;13.70;;;;;;;11.65;71.72;100465.03;5009518;28;20038;-47
2023/12/09 08:46:54;;;;;;;33.10;12.85;;;;;;;11.79;71.71;100461.63;5010052;28;20038;-48
2023/12/09 08:49:19;;;;;;;34.97;13.80;;;;;;;11.68;71.88;100455.50;5009252;28;20038;-43
2023/12/09 08:51:46;;;;;;;38.83;13.60;;;;;;;11.69;72.21;100454.63;5010171;28;20120;-44
2023/12/09 08:54:11;;;;;;;34.03;13.20;;;;;;;11.76;71.31;100445.97;5009917;28;20061;-44
2023/12/09 08:56:37;;;;;;;32.58;13.23;;;;;;;11.80;72.45;100449.44;5009716;28;20057;-48
2023/12/09 08:59:03;;;;;;;33.53;12.77;;;;;;;11.92;71.29;100449.47;5009921;28;20085;-43
2023/12/09 09:01:28;;;;;;;36.20;12.55;;;;;;;12.08;70.92;100443.38;5009384;28;20044;-43
2023/12/09 09:03:53;;;;;;;31.40;12.20;;;;;;;12.01;71.00;100441.66;5009932;28;20030;-46
2023/12/09 09:06:19;;;;;;;24.05;11.20;;;;;;;12.11;71.19;100435.56;5009677;28;20057;-48
2023/12/09 09:08:45;;;;;;;31.33;11.50;;;;;;;12.00;71.76;100436.41;5009868;28;20044;-45
2023/12/09 09:11:11;;;;;;;29.55;11.30;;;;;;;12.18;71.08;100444.25;5009854;28;20045;-46
2023/12/09 09:13:38;;;;;;;30.98;11.25;;;;;;;12.09;71.40;100431.19;5009335;28;20410;-45
2023/12/09 09:16:04;;;;;;;25.00;9.35;;;;;;;12.17;70.63;100412.03;5010582;28;20029;-50
2023/12/09 09:18:29;;;;;;;23.58;9.70;;;;;;;12.25;70.72;100408.53;5013014;28;20572;-46
2023/12/09 09:20:54;;;;;;;22.52;9.40;;;;;;;12.12;70.91;100408.56;5013114;28;20496;-43
2023/12/09 09:23:20;;;;;;;25.80;8.55;;;;;;;12.22;70.96;100393.72;5013911;28;20092;-48
2023/12/09 09:25:45;;;;;;;26.35;8.40;;;;;;;12.02;71.14;100396.34;5013398;28;20030;-44
2023/12/09 09:28:11;;;;;;;23.65;8.95;;;;;;;11.87;72.02;100388.53;5013697;28;20042;-48
2023/12/09 09:30:36;;;;;;;27.60;8.85;;;;;;;12.19;70.96;100368.50;5012868;28;20557;-49
2023/12/09 09:33:02;;;;;;;22.85;7.75;;;;;;;12.20;70.82;100370.19;5013448;28;20624;-46
2023/12/09 09:35:27;;;;;;;24.77;7.60;;;;;;;11.99;71.93;100367.63;5012743;28;20117;-44
2023/12/09 09:37:52;;;;;;;23.25;7.40;;;;;;;11.87;72.19;100359.78;5013225;28;20065;-47
2023/12/09 09:40:18;;;;;;;23.38;7.15;;;;;;;12.26;71.08;100352.78;5012813;28;20120;-42
2023/12/09 09:42:58;;;;;;;27.60;7.20;;;;;;;12.22;71.25;100333.63;5013488;28;20095;-46
2023/12/09 09:45:25;;;;;;;20.90;6.60;;;;;;;12.28;70.95;100319.66;5012965;28;20541;-46
2023/12/09 09:47:52;;;;;;;22.75;6.88;;;;;;;12.34;70.61;100304.84;5012522;28;20644;-45
2023/12/09 09:50:26;;;;;;;23.70;6.25;;;;;;;12.48;70.25;100310.91;5012907;28;20505;-45
2023/12/09 09:52:53;;;;;;;19.42;6.30;;;;;;;12.19;71.07;100299.66;5012981;28;20034;-47
2023/12/09 09:55:25;;;;;;;22.67;5.80;;;;;;;12.71;69.98;100283.78;5012148;28;20034;-44
2023/12/09 09:57:50;;;;;;;17.17;5.40;;;;;;;12.59;70.17;100284.72;5012887;28;20537;-44
2023/12/09 10:00:19;;;;;;;22.70;5.68;;;;;;;12.71;69.70;100287.25;5011135;28;20126;-45
2023/12/09 10:02:46;;;;;;;17.85;5.00;;;;;;;12.55;69.86;100283.00;5011644;28;20034;-43
2023/12/09 10:05:13;;;;;;;24.27;5.90;;;;;;;12.55;69.22;100249.88;5012613;28;20034;-48
2023/12/09 10:07:39;;;;;;;16.10;5.35;;;;;;;12.57;69.65;100249.84;5012637;28;20038;-44
2023/12/09 10:10:08;;;;;;;15.60;5.18;;;;;;;12.40;69.96;100230.75;5012694;28;20041;-45
2023/12/09 10:12:34;;;;;;;22.13;5.85;;;;;;;12.46;70.20;100215.91;5012503;28;20497;-47
2023/12/09 10:15:01;;;;;;;16.33;5.38;;;;;;;12.86;69.12;100232.28;5012585;28;20116;-47
2023/12/09 10:17:27;;;;;;;14.82;5.40;;;;;;;12.64;69.73;100216.69;5011180;28;20049;-46
2023/12/09 10:19:54;;;;;;;15.52;4.95;;;;;;;12.65;69.43;100203.63;5012990;28;20034;-45
2023/12/09 10:22:19;;;;;;;16.05;4.47;;;;;;;12.71;69.76;100194.84;5011074;28;20034;-44
2023/12/09 10:24:49;;;;;;;18.55;5.20;;;;;;;12.87;68.99;100186.03;5012611;28;20065;-44
2023/12/09 10:27:15;;;;;;;15.77;4.88;;;;;;;12.56;69.84;100165.28;5012781;28;20041;-46
2023/12/09 10:29:40;;;;;;;23.02;5.57;;;;;;;12.66;69.51;100163.50;5020543;28;20030;-44
2023/12/09 10:32:06;;;;;;;18.98;4.88;;;;;;;12.59;69.90;100157.44;5012934;28;20034;-44
2023/12/09 10:34:31;;;;;;;19.27;5.00;;;;;;;12.42;70.60;100163.66;5011185;28;20058;-44
2023/12/09 10:36:57;;;;;;;16.25;5.00;;;;;;;12.47;70.05;100139.22;5013658;28;20038;-49
2023/12/09 10:39:22;;;;;;;18.10;4.40;;;;;;;12.61;69.57;100133.91;5013411;28;20029;-43
2023/12/09 10:41:47;;;;;;;18.58;4.53;;;;;;;12.64;69.62;100112.97;5013002;28;20038;-45
2023/12/09 10:44:13;;;;;;;15.70;4.50;;;;;;;12.56;69.70;100097.31;5012584;28;20034;-46
2023/12/09 10:46:38;;;;;;;14.48;4.10;;;;;;;12.60;70.19;100085.97;5011706;28;20038;-45
2023/12/09 10:49:04;;;;;;;16.92;4.38;;;;;;;12.64;70.46;100097.28;5010689;28;20045;-44
2023/12/09 10:51:30;;;;;;;16.02;4.15;;;;;;;12.40;70.85;100068.69;5011284;28;20053;-43
2023/12/09 10:53:55;;;;;;;15.20;4.00;;;;;;;12.56;70.26;100037.19;5011910;28;20491;-50
2023/12/09 10:56:21;;;;;;;13.43;3.67;;;;;;;12.77;69.77;100023.06;5011459;28;20049;-43
2023/12/09 10:58:48;;;;;;;12.80;3.60;;;;;;;12.34;71.68;100006.88;5011931;28;20030;-46
2023/12/09 11:01:15;;;;;;;15.88;3.55;;;;;;;12.03;73.13;100016.66;5011750;28;20108;-45
2023/12/09 11:03:41;;;;;;;11.57;3.47;;;;;;;12.37;71.80;99999.00;5019735;28;20492;-44
2023/12/09 11:06:08;;;;;;;17.25;3.65;;;;;;;12.37;72.25;100000.75;5011680;28;20042;-47
2023/12/09 11:08:36;;;;;;;15.20;3.67;;;;;;;12.29;72.58;99979.91;5010880;28;20034;-44